Time;durP1;ratioP1;P1;durP2;ratioP2;P2;SDS_P1;SDS_P2;PMS_P1;PMS_P2;Temp;Humidity;BMP_temperature;BMP_pressure;BME280_temperature;BME280_humidity;BME280_pressure;Samples;Min_cycle;Max_cycle;Signal;HPM_P1;HPM_P2
2020/12/26 00:01:25;;;;;;;7.23;6.30;;;7.90;99.90;;;8.12;77.02;102459.31;5074887;28;20493;-71
2020/12/26 00:03:52;;;;;;;6.38;5.78;;;7.90;99.90;;;8.19;76.60;102439.28;5074998;28;20045;-71
2020/12/26 00:06:21;;;;;;;9.88;5.40;;;8.00;99.90;;;8.28;75.72;102425.56;5073700;28;20044;-71
2020/12/26 00:08:51;;;;;;;5.38;4.70;;;8.20;99.90;;;8.49;75.65;102448.19;5073685;28;20062;-71
2020/12/26 00:11:21;;;;;;;5.43;4.70;;;8.30;99.90;;;8.43;74.90;102423.34;5074952;28;20119;-71
2020/12/26 00:13:51;;;;;;;6.45;3.80;;;8.30;99.90;;;8.55;74.59;102426.34;5074811;28;20110;-71
2020/12/26 00:16:20;;;;;;;4.82;4.22;;;8.40;99.90;;;8.70;74.28;102440.88;5075141;28;20049;-71
2020/12/26 00:18:48;;;;;;;7.95;4.38;;;8.50;99.90;;;8.51;74.53;102393.75;5074707;28;20083;-71
2020/12/26 00:21:20;;;;;;;5.20;4.10;;;8.60;99.90;;;8.61;74.17;102408.97;5074660;28;20413;-71
2020/12/26 00:23:48;;;;;;;6.80;4.30;;;8.60;99.90;;;8.79;73.83;102442.84;5074422;28;20036;-71
2020/12/26 00:26:16;;;;;;;11.18;4.68;;;8.60;99.90;;;8.69;74.09;102433.78;5074543;28;20048;-70
2020/12/26 00:28:44;;;;;;;10.25;5.28;;;8.60;99.90;;;8.61;73.29;102437.09;5074559;28;20548;-71
2020/12/26 00:31:15;;;;;;;12.52;4.95;;;8.50;99.90;;;8.38;73.61;102424.97;5074216;28;20032;-71
2020/12/26 00:33:42;;;;;;;5.83;4.17;;;8.40;99.90;;;8.41;73.56;102433.88;5074539;28;20048;-71
2020/12/26 00:36:10;;;;;;;12.65;4.80;;;8.30;99.90;;;8.14;72.81;102394.38;5073914;28;20130;-70
2020/12/26 00:38:37;;;;;;;13.40;4.80;;;8.20;99.90;;;8.11;71.57;102422.34;5074415;28;20045;-71
2020/12/26 00:41:05;;;;;;;9.73;4.35;;;8.10;99.90;;;8.18;71.14;102437.53;5073977;28;20041;-71
2020/12/26 00:43:32;;;;;;;12.82;5.32;;;8.10;99.90;;;7.88;71.15;102404.94;5074265;28;20052;-70
2020/12/26 00:46:00;;;;;;;5.68;4.72;;;7.90;99.90;;;8.07;69.98;102429.28;5074199;28;20040;-71
2020/12/26 00:48:28;;;;;;;9.68;4.75;;;7.90;99.90;;;7.67;69.57;102347.25;5073946;28;20168;-70
2020/12/26 00:50:55;;;;;;;9.52;4.93;;;7.90;99.90;;;8.09;69.89;102430.22;5074167;28;20121;-71
2020/12/26 00:53:23;;;;;;;11.87;5.43;;;8.00;99.90;;;8.18;69.04;102437.53;5072981;28;20068;-71
2020/12/26 00:55:50;;;;;;;10.05;4.10;;;8.00;99.90;;;8.23;68.82;102436.81;5072969;28;20437;-71
2020/12/26 00:58:18;;;;;;;5.97;3.83;;;8.10;99.90;;;8.20;68.67;102443.75;5074256;28;20060;-71
2020/12/26 01:00:46;;;;;;;7.57;4.00;;;8.00;99.90;;;8.19;68.55;102432.28;5105731;28;20045;-71
2020/12/26 01:03:50;;;;;;;7.03;4.17;;;8.00;99.90;;;8.04;68.47;102408.13;5073713;28;20044;-71
2020/12/26 01:06:17;;;;;;;9.70;4.75;;;8.00;99.90;;;8.18;68.15;102432.25;5073921;28;20036;-71
2020/12/26 01:08:45;;;;;;;6.47;4.38;;;8.00;99.90;;;8.18;67.80;102429.63;5073841;28;20044;-71
2020/12/26 01:11:15;;;;;;;7.70;4.72;;;8.00;99.90;;;8.08;67.93;102417.00;5073482;28;20106;-71
2020/12/26 01:13:43;;;;;;;8.40;4.45;;;7.90;99.90;;;8.03;67.83;102430.03;5073841;28;20067;-71
2020/12/26 01:16:12;;;;;;;7.43;4.30;;;7.90;99.90;;;7.91;67.88;102418.22;5073697;28;20072;-71
2020/12/26 01:18:40;;;;;;;8.00;4.53;;;7.80;99.90;;;7.83;68.67;102425.91;5073455;28;20040;-71
2020/12/26 01:21:14;;;;;;;9.85;5.10;;;7.70;99.90;;;7.72;69.25;102408.88;5073416;28;20033;-71
2020/12/26 01:23:42;;;;;;;9.10;4.90;;;7.70;99.90;;;7.81;68.90;102417.06;5073442;28;20040;-70
2020/12/26 01:26:15;;;;;;;10.85;5.28;;;7.60;99.90;;;7.70;69.06;102413.19;5073279;28;20040;-71
2020/12/26 01:28:43;;;;;;;9.38;4.35;;;7.60;99.90;;;7.63;69.46;102412.91;5073145;28;20044;-70
2020/12/26 01:31:13;;;;;;;9.40;4.78;;;7.50;99.90;;;7.74;69.49;102407.16;5073045;28;20494;-70
2020/12/26 01:33:44;;;;;;;5.97;4.80;;;7.50;99.90;;;7.75;69.57;102398.41;5073221;28;20044;-70
2020/12/26 01:36:13;;;;;;;7.00;4.13;;;7.60;99.90;;;7.85;69.13;102389.97;5073136;28;20048;-70
2020/12/26 01:38:40;;;;;;;9.35;4.90;;;7.60;99.90;;;7.74;68.68;102393.97;5073287;28;20053;-70
2020/12/26 01:41:08;;;;;;;12.47;5.00;;;7.60;99.90;;;7.66;68.43;102389.34;5072729;28;20110;-70
2020/12/26 01:43:37;;;;;;;10.17;4.30;;;7.60;99.90;;;7.67;68.58;102399.00;5073069;28;20106;-71
2020/12/26 01:46:04;;;;;;;5.93;4.47;;;7.50;99.90;;;7.64;68.38;102420.00;5072985;28;20044;-70
2020/12/26 01:48:32;;;;;;;11.83;4.80;;;7.50;99.90;;;7.78;67.80;102395.00;5072971;28;20043;-71
2020/12/26 01:51:02;;;;;;;6.72;4.30;;;7.60;99.90;;;7.78;67.87;102389.72;5072727;28;20037;-71
2020/12/26 01:53:31;;;;;;;12.50;4.40;;;7.70;99.90;;;7.85;67.74;102389.97;5105545;28;20127;-70
2020/12/26 01:55:58;;;;;;;7.67;4.63;;;7.70;99.90;;;7.81;67.40;102389.81;5072794;28;20109;-71
2020/12/26 01:58:26;;;;;;;11.13;4.93;;;7.70;99.90;;;7.79;67.67;102383.59;5072455;28;20049;-71
2020/12/26 02:00:54;;;;;;;8.70;4.85;;;7.70;99.90;;;7.82;66.83;102395.13;5072506;28;20043;-70
2020/12/26 02:03:21;;;;;;;7.70;4.97;;;7.70;99.90;;;7.54;67.00;102363.50;5072752;28;20045;-71
2020/12/26 02:05:52;;;;;;;9.67;4.77;;;7.60;99.90;;;7.79;67.37;102384.50;5072379;28;20064;-71
2020/12/26 02:08:19;;;;;;;12.13;5.30;;;7.70;99.90;;;7.79;66.80;102389.78;5072424;28;20047;-71
2020/12/26 02:10:50;;;;;;;9.30;4.77;;;7.70;99.90;;;7.76;67.41;102386.16;5072444;28;20066;-71
2020/12/26 02:13:18;;;;;;;11.25;5.20;;;7.70;99.90;;;7.83;67.22;102388.13;5072174;28;20482;-70
2020/12/26 02:15:45;;;;;;;8.50;5.05;;;7.70;99.90;;;7.79;67.05;102379.22;5072602;28;20072;-70
2020/12/26 02:18:15;;;;;;;7.68;4.35;;;7.60;99.90;;;7.83;67.45;102378.47;5072371;28;20052;-71
2020/12/26 02:20:45;;;;;;;12.82;4.47;;;7.70;99.90;;;7.71;67.64;102335.06;5072575;28;20068;-71
2020/12/26 02:23:13;;;;;;;7.60;4.63;;;7.70;99.90;;;7.83;67.76;102365.31;5072633;28;20394;-71
2020/12/26 02:25:44;;;;;;;8.57;4.10;;;7.60;99.90;;;7.81;68.01;102351.19;5072165;28;20075;-70
2020/12/26 02:28:11;;;;;;;;;;;7.70;99.90;;;8.00;68.45;102350.00;5072878;28;20041;-70
2020/12/26 02:30:42;;;;;;;10.63;4.27;;;7.80;99.90;;;8.02;67.94;102343.94;5072644;28;19973;-71
2020/12/26 02:33:09;;;;;;;6.75;4.82;;;7.80;99.90;;;7.91;68.70;102334.84;5072548;28;20044;-70
2020/12/26 02:35:37;;;;;;;7.33;4.17;;;7.80;99.90;;;8.03;68.07;102324.63;5072379;28;20094;-71
2020/12/26 02:38:04;;;;;;;4.83;3.90;;;7.80;99.90;;;8.04;68.06;102304.44;5072238;28;20056;-71
2020/12/26 02:40:32;;;;;;;7.20;4.90;;;7.90;99.90;;;8.04;68.45;102313.25;5072311;28;20066;-71
2020/12/26 02:43:01;;;;;;;9.83;5.17;;;7.90;99.90;;;8.14;68.59;102312.69;5071943;28;20041;-70
2020/12/26 02:45:28;;;;;;;8.53;4.07;;;7.90;99.90;;;8.17;68.60;102301.31;5071875;28;20127;-71
2020/12/26 02:47:55;;;;;;;12.23;4.93;;;8.00;99.90;;;8.10;69.27;102283.56;5104638;28;20696;-71
2020/12/26 02:50:26;;;;;;;5.80;5.07;;;7.90;99.90;;;8.20;68.89;102297.03;5072240;28;20512;-71
2020/12/26 02:52:53;;;;;;;10.03;4.90;;;7.90;99.90;;;8.29;69.39;102291.16;5072192;28;20064;-71
2020/12/26 02:55:23;;;;;;;6.90;4.38;;;8.00;99.90;;;8.34;68.88;102283.38;5072201;28;20057;-71
2020/12/26 02:57:53;;;;;;;7.18;4.55;;;8.00;99.90;;;8.41;68.85;102273.03;5071942;28;20037;-71
2020/12/26 03:00:22;;;;;;;9.48;5.10;;;8.10;99.90;;;8.37;69.28;102286.09;5072114;28;20041;-71
2020/12/26 03:02:49;;;;;;;9.68;4.90;;;8.10;99.90;;;8.31;69.32;102251.63;5071754;28;20480;-71
2020/12/26 03:05:17;;;;;;;9.25;5.20;;;8.00;99.90;;;8.34;69.20;102247.38;5071939;28;20040;-70
2020/12/26 03:07:44;;;;;;;8.63;4.85;;;8.00;99.90;;;8.39;69.23;102253.66;5071723;28;20076;-71
2020/12/26 03:10:14;;;;;;;5.55;4.68;;;8.10;99.90;;;8.36;69.65;102250.03;5070297;28;20106;-71
2020/12/26 03:12:42;;;;;;;7.43;4.63;;;8.10;99.90;;;8.30;69.03;102241.97;5071754;28;20113;-71
2020/12/26 03:15:12;;;;;;;6.97;4.90;;;8.00;99.90;;;8.29;69.75;102245.44;5071665;28;20490;-71
2020/12/26 03:17:40;;;;;;;7.40;4.82;;;8.00;99.90;;;8.24;69.83;102242.66;5071652;28;20176;-71
2020/12/26 03:20:10;;;;;;;6.93;4.38;;;7.90;99.90;;;8.21;69.88;102246.09;5070592;28;20052;-71
2020/12/26 03:22:40;;;;;;;10.73;5.68;;;8.00;99.90;;;8.18;69.94;102251.31;5071993;28;20048;-71
2020/12/26 03:25:09;;;;;;;8.98;4.72;;;8.00;99.90;;;8.18;70.61;102240.75;5073427;28;20045;-71
2020/12/26 03:27:38;;;;;;;10.00;5.35;;;7.90;99.90;;;8.17;70.95;102244.22;5075750;28;20090;-70
2020/12/26 03:30:06;;;;;;;9.13;5.40;;;7.90;99.90;;;8.26;70.96;102242.72;5075615;28;20111;-71
2020/12/26 03:32:35;;;;;;;6.75;4.90;;;7.90;99.90;;;8.24;70.27;102232.13;5075282;28;20040;-71
2020/12/26 03:35:06;;;;;;;;;;;8.00;99.90;;;8.36;70.97;102244.78;5076361;28;20091;-70
2020/12/26 03:37:35;;;;;;;6.80;4.57;;;8.10;99.90;;;8.40;70.75;102247.50;5073825;28;20296;-71
2020/12/26 03:40:05;;;;;;;7.90;5.13;;;8.10;99.90;;;6.39;70.61;101896.16;5075090;28;20072;-70
2020/12/26 03:42:32;;;;;;;11.47;5.13;;;8.10;99.90;;;8.35;70.97;102245.59;5075441;28;20089;-71
2020/12/26 03:45:00;;;;;;;8.10;5.20;;;8.10;99.90;;;8.27;71.38;102250.66;5074026;28;20127;-71
2020/12/26 03:47:27;;;;;;;9.68;5.45;;;8.00;99.90;;;8.28;71.81;102248.94;5075196;28;20037;-71
2020/12/26 03:49:54;;;;;;;16.02;5.63;;;8.00;99.90;;;8.24;72.41;102240.03;5075285;28;20131;-71
2020/12/26 03:52:22;;;;;;;11.80;5.47;;;8.00;99.90;;;8.27;72.10;102239.22;5075256;28;20068;-71
2020/12/26 03:54:50;;;;;;;10.52;5.15;;;8.00;99.90;;;8.25;72.05;102236.56;5075185;28;20048;-71
2020/12/26 03:57:17;;;;;;;8.10;4.80;;;8.00;99.90;;;8.31;72.40;102230.56;5075112;28;20044;-71
2020/12/26 03:59:45;;;;;;;7.80;5.30;;;8.00;99.90;;;8.31;72.04;102233.19;5074816;28;20124;-71
2020/12/26 04:02:13;;;;;;;9.07;5.35;;;8.00;99.90;;;8.23;72.17;102218.03;5074789;28;20041;-71
2020/12/26 04:04:41;;;;;;;9.82;5.28;;;8.00;99.90;;;8.23;72.27;102207.50;5074940;28;20045;-71
2020/12/26 04:07:08;;;;;;;7.93;4.75;;;8.10;99.90;;;8.22;72.07;102207.47;5074640;28;20422;-71
2020/12/26 04:09:37;;;;;;;8.40;4.70;;;8.10;99.90;;;8.45;72.38;102251.16;5074908;28;20049;-71
2020/12/26 04:12:04;;;;;;;6.97;4.40;;;8.10;99.90;;;8.45;72.22;102245.00;5074451;28;20119;-71
2020/12/26 04:14:33;;;;;;;8.80;4.45;;;8.10;99.90;;;8.43;72.03;102233.53;5073549;28;20123;-71
2020/12/26 04:17:03;;;;;;;8.93;4.78;;;8.10;99.90;;;8.51;71.94;102224.06;5074840;28;20048;-71
2020/12/26 04:19:31;;;;;;;9.18;5.50;;;8.20;99.90;;;8.49;72.21;102224.03;5074772;28;20072;-71
2020/12/26 04:21:59;;;;;;;8.43;5.63;;;8.20;99.90;;;8.47;71.93;102220.47;5074696;28;20049;-71
2020/12/26 04:24:26;;;;;;;10.32;5.45;;;8.10;99.90;;;8.42;72.02;102211.53;5074662;28;20131;-71
2020/12/26 04:26:54;;;;;;;7.47;4.75;;;8.10;99.90;;;8.40;72.40;102207.97;5074222;28;20041;-71
2020/12/26 04:29:24;;;;;;;11.73;5.63;;;8.10;99.90;;;8.42;72.68;102205.38;5074280;28;20119;-71
2020/12/26 04:31:52;;;;;;;9.63;4.97;;;8.10;99.90;;;8.40;72.46;102204.44;5074257;28;20051;-71
2020/12/26 04:34:21;;;;;;;8.20;4.18;;;8.10;99.90;;;8.40;72.37;102204.44;5074466;28;20127;-71
2020/12/26 04:36:50;;;;;;;10.77;4.72;;;8.10;99.90;;;8.18;73.20;102171.34;5073698;28;20131;-71
2020/12/26 04:39:17;;;;;;;8.25;5.22;;;8.10;99.90;;;8.38;72.84;102201.75;5074059;28;20048;-71
2020/12/26 04:41:45;;;;;;;9.23;4.80;;;8.10;99.90;;;8.31;72.87;102198.91;5074361;28;20040;-71
2020/12/26 04:44:16;;;;;;;11.02;5.00;;;8.10;99.90;;;8.30;73.01;102199.78;5074203;28;20186;-71
2020/12/26 04:46:44;;;;;;;13.13;5.50;;;8.10;99.90;;;8.23;73.46;102185.50;5074195;28;20048;-71
2020/12/26 04:49:12;;;;;;;10.75;5.28;;;8.00;99.90;;;8.13;73.95;102176.47;5073844;28;20124;-71
2020/12/26 04:51:42;;;;;;;8.40;4.60;;;7.90;99.90;;;8.07;73.88;102176.31;5074114;28;20060;-71
2020/12/26 04:54:18;;;;;;;10.13;5.38;;;7.90;99.90;;;8.00;74.39;102166.47;5073838;28;20056;-71
2020/12/26 04:56:46;;;;;;;8.20;5.15;;;7.80;99.90;;;7.72;74.50;102126.19;5073818;28;20422;-71
2020/12/26 04:59:14;;;;;;;7.82;4.93;;;7.70;99.90;;;7.90;74.57;102168.81;5073960;28;20068;-70
2020/12/26 05:01:42;;;;;;;12.67;5.57;;;7.60;99.90;;;7.93;74.87;102150.47;5073636;28;20444;-71
2020/12/26 05:04:10;;;;;;;12.00;4.97;;;7.70;99.90;;;7.86;74.97;102153.75;5074064;28;20045;-71
2020/12/26 05:06:49;;;;;;;9.60;4.70;;;7.60;99.90;;;7.77;75.37;102145.63;5073840;28;20039;-71
2020/12/26 05:09:18;;;;;;;8.53;4.63;;;7.60;99.90;;;7.85;75.55;102162.53;5073553;28;20044;-71
2020/12/26 05:11:56;;;;;;;9.43;5.30;;;7.60;99.90;;;7.70;75.38;102147.22;5073758;28;20444;-71
2020/12/26 05:14:30;;;;;;;11.27;5.13;;;7.60;99.90;;;7.86;75.31;102159.94;5073539;28;20067;-71
2020/12/26 05:16:58;;;;;;;;;;;7.60;99.90;;;7.87;75.43;102134.50;5074097;28;20048;-71
2020/12/26 05:19:25;;;;;;;11.87;5.10;;;7.60;99.90;;;7.95;75.45;102151.41;5073279;28;19926;-71
2020/12/26 05:21:54;;;;;;;11.23;5.00;;;7.60;99.90;;;7.66;75.54;102126.91;5073453;28;20127;-71
2020/12/26 05:24:22;;;;;;;11.43;4.97;;;7.60;99.90;;;7.83;75.71;102162.50;5073228;28;20067;-71
2020/12/26 05:26:52;;;;;;;8.07;5.40;;;7.60;99.90;;;7.72;76.24;102157.78;5073281;28;20040;-71
2020/12/26 05:29:22;;;;;;;11.90;5.10;;;7.50;99.90;;;7.70;76.28;102154.22;5073372;28;20066;-71
2020/12/26 05:31:55;;;;;;;8.93;5.07;;;7.50;99.90;;;7.68;76.71;102140.13;5073105;28;20551;-71
2020/12/26 05:34:41;;;;;;;7.63;5.60;;;7.50;99.90;;;7.69;76.64;102142.78;5073266;28;20051;-70
2020/12/26 05:37:08;;;;;;;11.03;5.27;;;7.40;99.90;;;7.68;76.79;102146.28;5073036;28;20139;-71
2020/12/26 05:39:38;;;;;;;10.83;4.50;;;7.50;99.90;;;7.47;76.61;102108.78;5073217;28;20055;-70
2020/12/26 05:42:07;;;;;;;7.63;4.93;;;7.50;99.90;;;7.65;76.63;102156.72;5073336;28;20040;-71
2020/12/26 05:44:37;;;;;;;9.60;5.47;;;7.50;99.90;;;7.55;76.81;102112.53;5072837;28;20098;-72
2020/12/26 05:47:06;;;;;;;10.77;4.85;;;7.50;99.90;;;7.75;77.09;102148.22;5071107;28;20052;-71
2020/12/26 05:49:36;;;;;;;8.20;5.05;;;7.50;99.90;;;7.72;77.00;102148.16;5073042;28;20039;-71
2020/12/26 05:52:08;;;;;;;7.30;4.57;;;7.50;99.90;;;7.68;77.50;102148.00;5072666;28;20386;-71
2020/12/26 05:54:36;;;;;;;13.43;5.00;;;7.50;99.90;;;7.22;77.19;102059.84;5073196;28;20053;-71
2020/12/26 05:57:10;;;;;;;9.57;4.83;;;7.50;99.90;;;7.68;77.28;102134.84;5072593;28;20048;-71
2020/12/26 05:59:45;;;;;;;10.30;5.17;;;7.50;99.90;;;7.78;77.05;102145.66;5072612;28;20146;-71
2020/12/26 06:02:25;;;;;;;10.13;5.60;;;7.50;99.90;;;7.78;76.97;102137.75;5072624;28;20041;-70
2020/12/26 06:04:58;;;;;;;9.67;5.50;;;7.50;99.90;;;7.76;77.16;102128.06;5072839;28;20114;-71
2020/12/26 06:07:29;;;;;;;9.15;5.10;;;7.50;99.90;;;7.80;77.37;102128.16;5072661;28;20393;-71
2020/12/26 06:09:59;;;;;;;8.85;4.75;;;7.60;99.90;;;7.87;76.76;102127.50;5072603;28;20048;-70
2020/12/26 06:12:29;;;;;;;11.63;4.68;;;7.60;99.90;;;7.84;76.55;102122.13;5072346;28;20619;-71
2020/12/26 06:14:58;;;;;;;12.50;5.40;;;7.60;99.90;;;7.87;76.83;102114.31;5072621;28;20474;-71
2020/12/26 06:17:28;;;;;;;9.87;4.80;;;7.60;99.90;;;7.76;76.72;102102.59;5072555;28;20044;-71
2020/12/26 06:20:02;;;;;;;10.18;4.93;;;7.60;99.90;;;7.83;77.13;102130.00;5072626;28;20040;-71
2020/12/26 06:22:44;;;;;;;7.97;5.35;;;7.60;99.90;;;7.91;76.59;102125.81;5072544;28;20048;-71
2020/12/26 06:25:14;;;;;;;12.90;5.30;;;7.60;99.90;;;7.93;76.42;102125.03;5072201;28;20033;-71
2020/12/26 06:28:01;;;;;;;8.70;5.45;;;7.70;99.90;;;7.88;76.82;102118.72;5072120;28;20037;-71
2020/12/26 06:30:30;;;;;;;15.17;5.20;;;7.70;99.90;;;7.82;76.42;102133.50;5070281;28;20060;-71
2020/12/26 06:32:58;;;;;;;10.23;5.50;;;7.60;99.90;;;7.88;76.63;102131.88;5071916;28;20048;-71
2020/12/26 06:35:28;;;;;;;9.17;5.77;;;7.60;99.90;;;7.80;76.98;102128.16;5072368;28;20032;-71
2020/12/26 06:38:16;;;;;;;14.45;6.90;;;7.60;99.90;;;7.82;76.44;102133.50;5071930;28;20052;-71
2020/12/26 06:40:55;;;;;;;9.60;5.27;;;7.60;99.90;;;7.69;76.60;102103.28;5072092;28;20123;-71
2020/12/26 06:43:52;;;;;;;10.33;5.57;;;7.60;99.90;;;7.62;77.13;102111.88;5072383;28;20106;-71
2020/12/26 06:46:40;;;;;;;9.47;5.33;;;7.50;99.90;;;7.65;76.96;102114.56;5072327;28;20099;-71
2020/12/26 06:49:24;;;;;;;13.57;5.33;;;7.50;99.90;;;7.30;77.11;102074.13;5072316;28;20489;-71
2020/12/26 06:51:52;;;;;;;10.33;4.87;;;7.40;99.90;;;7.49;77.31;102115.00;5072192;28;20041;-72
2020/12/26 06:54:45;;;;;;;10.13;5.47;;;7.30;99.90;;;7.56;77.49;102118.69;5072483;28;20037;-71
2020/12/26 06:57:43;;;;;;;8.67;5.83;;;7.30;99.90;;;7.49;77.68;102107.09;5072026;28;20048;-71
2020/12/26 07:00:29;;;;;;;13.50;5.87;;;7.30;99.90;;;7.38;78.18;102108.53;5012058;28;20053;-71
2020/12/26 07:03:24;;;;;;;11.27;6.70;;;7.20;99.90;;;7.17;78.78;102111.47;5070490;28;20064;-71
2020/12/26 07:05:54;;;;;;;14.93;5.93;;;7.00;99.90;;;5.60;78.34;101863.06;5076139;28;20444;-71
2020/12/26 07:08:31;;;;;;;14.77;6.83;;;7.00;99.90;;;7.09;79.07;102114.69;5075878;28;20443;-71
2020/12/26 07:11:02;;;;;;;15.33;6.90;;;6.90;99.90;;;7.08;79.50;102108.53;5075980;28;20044;-71
2020/12/26 07:13:48;;;;;;;13.10;6.60;;;6.90;99.90;;;7.13;79.23;102111.31;5075731;28;20063;-71
2020/12/26 07:16:42;;;;;;;9.97;6.57;;;6.90;99.90;;;7.07;79.73;102105.88;5075785;28;20045;-71
2020/12/26 07:19:39;;;;;;;13.20;6.87;;;6.90;99.90;;;7.15;79.67;102109.63;5075656;28;20086;-71
2020/12/26 07:22:13;;;;;;;12.67;7.37;;;6.90;99.90;;;7.15;79.50;102112.25;5076154;28;20047;-71
2020/12/26 07:24:43;;;;;;;15.57;6.93;;;7.00;99.90;;;7.05;79.76;102102.31;5074615;28;20055;-71
2020/12/26 07:27:29;;;;;;;13.00;6.70;;;6.90;99.90;;;7.06;79.99;102098.84;5075460;28;20086;-71
2020/12/26 07:30:11;;;;;;;10.13;6.63;;;6.90;99.90;;;7.01;80.38;102093.44;5075703;28;20429;-71
2020/12/26 07:32:58;;;;;;;14.63;7.73;;;6.90;99.90;;;7.16;80.01;102090.38;5075694;28;20071;-71
2020/12/26 07:35:41;;;;;;;13.60;6.70;;;6.90;99.90;;;7.10;80.09;102090.19;5075634;28;20040;-71
2020/12/26 07:38:17;;;;;;;12.37;7.20;;;6.90;99.90;;;7.02;80.04;102086.44;5075181;28;20059;-71
2020/12/26 07:40:46;;;;;;;16.20;7.70;;;6.90;99.90;;;7.17;80.23;102082.53;5075529;28;20040;-71
2020/12/26 07:43:15;;;;;;;13.17;7.30;;;6.90;99.90;;;6.36;80.12;101964.41;5075496;28;20044;-71
2020/12/26 07:45:46;;;;;;;10.43;6.72;;;6.90;99.90;;;7.07;80.09;102075.22;5075163;28;20061;-71
2020/12/26 07:48:16;;;;;;;11.07;7.30;;;6.90;99.90;;;7.12;80.16;102052.53;5075243;28;20375;-71
2020/12/26 07:50:44;;;;;;;;;;;6.90;99.90;;;6.91;79.64;102016.88;5075490;28;20048;-71
2020/12/26 07:53:15;;;;;;;14.98;7.15;;;7.00;99.90;;;6.92;80.08;102037.94;5075305;28;19931;-71
2020/12/26 07:55:42;;;;;;;14.50;6.67;;;6.90;99.90;;;7.17;80.26;102058.84;5073864;28;20548;-71
2020/12/26 07:58:14;;;;;;;11.80;6.70;;;7.00;99.90;;;7.16;80.01;102049.16;5075174;28;20444;-71
2020/12/26 08:00:43;;;;;;;11.43;7.00;;;7.00;99.90;;;7.20;80.44;102044.88;5073820;28;20076;-71
2020/12/26 08:03:12;;;;;;;11.43;6.90;;;7.00;99.90;;;7.14;80.41;102042.09;5075325;28;20145;-71
2020/12/26 08:05:47;;;;;;;17.43;7.50;;;6.90;99.90;;;7.26;80.44;102045.94;5073767;28;20101;-71
2020/12/26 08:08:19;;;;;;;18.93;7.50;;;7.00;99.90;;;7.19;80.39;102037.84;5074725;28;20032;-71
2020/12/26 08:10:47;;;;;;;18.17;8.07;;;7.00;99.90;;;7.09;80.51;102015.63;5074380;28;20485;-71
2020/12/26 08:13:15;;;;;;;14.93;8.07;;;7.00;99.90;;;7.18;80.28;102015.88;5074667;28;20044;-71
2020/12/26 08:15:45;;;;;;;17.40;7.93;;;7.10;99.90;;;7.34;80.16;102021.59;5074575;28;20510;-69
2020/12/26 08:18:13;;;;;;;18.43;8.50;;;7.10;99.90;;;7.29;80.07;102011.81;5074378;28;20070;-69
2020/12/26 08:20:40;;;;;;;18.57;8.20;;;7.10;99.90;;;7.28;80.36;102006.50;5074457;28;20036;-69
2020/12/26 08:23:12;;;;;;;16.97;7.67;;;7.10;99.90;;;7.27;80.12;102020.53;5074414;28;20505;-69
2020/12/26 08:25:41;;;;;;;20.93;7.67;;;7.10;99.90;;;7.25;79.93;101995.91;5074645;28;20041;-69
2020/12/26 08:28:09;;;;;;;19.70;6.83;;;7.20;99.90;;;7.28;79.93;102004.75;5074310;28;20048;-69
2020/12/26 08:30:40;;;;;;;14.33;7.57;;;7.10;99.90;;;7.41;79.80;102005.09;5074304;28;20506;-69
2020/12/26 08:33:29;;;;;;;13.43;6.88;;;7.20;99.90;;;7.37;80.17;101996.25;5074623;28;20049;-69
2020/12/26 08:36:05;;;;;;;19.43;7.33;;;7.20;99.90;;;7.16;79.87;101987.78;5074231;28;20067;-69
2020/12/26 08:38:43;;;;;;;18.73;7.47;;;7.10;99.90;;;7.36;79.92;101994.44;5074208;28;20056;-69
2020/12/26 08:41:13;;;;;;;20.07;7.30;;;7.20;99.90;;;7.33;79.90;101989.09;5074258;28;20086;-69
2020/12/26 08:43:41;;;;;;;12.95;6.75;;;7.20;99.90;;;7.36;79.33;101994.44;5074048;28;20041;-69
2020/12/26 08:46:16;;;;;;;12.03;6.83;;;7.20;99.90;;;7.27;79.44;102007.38;5073988;28;20041;-70
2020/12/26 08:48:43;;;;;;;14.47;7.47;;;7.20;99.90;;;7.13;79.38;101964.00;5073773;28;20093;-69
2020/12/26 08:51:19;;;;;;;16.17;6.60;;;7.10;99.90;;;7.17;80.10;102002.69;5074061;28;20422;-69
2020/12/26 08:53:48;;;;;;;15.77;6.70;;;7.00;99.90;;;6.88;80.10;101967.69;5073968;28;20044;-70
2020/12/26 08:56:31;;;;;;;14.90;7.03;;;7.00;99.90;;;7.03;80.01;101993.53;5073540;28;20143;-69
2020/12/26 08:58:58;;;;;;;11.23;6.07;;;7.00;99.90;;;7.06;79.85;101998.88;5072530;28;20436;-69
2020/12/26 09:01:26;;;;;;;16.47;6.57;;;6.90;99.90;;;6.90;80.18;101960.75;5074004;28;20048;-70
2020/12/26 09:03:56;;;;;;;14.33;6.90;;;6.90;99.90;;;7.11;80.31;101984.09;5073640;28;20102;-70
2020/12/26 09:06:39;;;;;;;16.00;7.03;;;6.90;99.90;;;7.09;80.18;101991.06;5073367;28;20458;-69
2020/12/26 09:09:18;;;;;;;17.30;6.20;;;6.90;99.90;;;7.12;79.85;101988.53;5073867;28;20051;-69
2020/12/26 09:11:48;;;;;;;9.73;6.00;;;6.90;99.90;;;6.58;80.27;101873.94;5073451;28;20049;-69
2020/12/26 09:14:19;;;;;;;20.23;6.93;;;7.00;99.90;;;7.22;79.71;101980.00;5073678;28;20106;-69
2020/12/26 09:16:47;;;;;;;14.13;6.80;;;7.10;99.90;;;7.30;79.64;101978.47;5073824;28;20441;-69
2020/12/26 09:19:15;;;;;;;14.97;6.60;;;7.10;99.90;;;7.28;79.81;101985.44;5073450;28;20154;-69
2020/12/26 09:21:42;;;;;;;14.37;7.03;;;7.10;99.90;;;7.37;79.69;101979.53;5072467;28;20857;-69
2020/12/26 09:24:20;;;;;;;18.60;7.40;;;7.20;99.90;;;7.22;79.28;101970.38;5073048;28;20120;-69
2020/12/26 09:26:49;;;;;;;15.40;6.90;;;7.10;99.90;;;7.28;79.25;101988.06;5072956;28;20041;-71
2020/12/26 09:29:24;;;;;;;9.40;6.60;;;7.10;99.90;;;7.16;79.07;101948.31;5073299;28;20119;-71
2020/12/26 09:31:52;;;;;;;9.03;5.70;;;7.10;99.90;;;7.08;78.88;101965.63;5073118;28;20043;-72
2020/12/26 09:34:22;;;;;;;11.00;6.10;;;7.10;99.90;;;7.09;78.96;101954.22;5072874;28;20062;-72
2020/12/26 09:37:04;;;;;;;13.82;6.07;;;7.10;99.90;;;7.26;79.10;101958.19;5071657;28;20397;-71
2020/12/26 09:39:32;;;;;;;14.83;6.07;;;7.10;99.90;;;7.02;79.25;101939.16;5072994;28;20048;-72
2020/12/26 09:42:00;;;;;;;9.70;6.07;;;7.00;99.90;;;7.07;79.65;101937.50;5072672;28;20048;-71
2020/12/26 09:44:28;;;;;;;13.30;6.43;;;7.00;99.90;;;7.16;79.61;101949.19;5071495;28;20052;-71
2020/12/26 09:47:00;;;;;;;13.70;5.90;;;7.10;99.90;;;7.27;79.51;101968.78;5072677;28;20549;-72
2020/12/26 09:49:28;;;;;;;13.87;6.47;;;7.10;99.90;;;7.27;79.39;101970.53;5073057;28;20063;-72
2020/12/26 09:51:55;;;;;;;9.93;6.10;;;7.10;99.90;;;7.39;79.30;101967.31;5072830;28;20094;-72
2020/12/26 09:54:23;;;;;;;11.23;5.50;;;7.20;99.90;;;7.36;79.48;101967.22;5072750;28;20044;-72
2020/12/26 09:56:50;;;;;;;11.13;5.57;;;7.20;99.90;;;7.46;79.22;101963.97;5071104;28;20051;-73
2020/12/26 09:59:19;;;;;;;15.40;6.03;;;7.30;99.90;;;7.44;79.18;101956.06;5072068;28;20048;-74
2020/12/26 10:01:47;;;;;;;9.70;5.90;;;7.30;99.90;;;7.44;79.22;101970.94;5072034;28;20553;-73
2020/12/26 10:04:15;;;;;;;8.40;5.30;;;7.30;99.90;;;7.26;79.28;101927.53;5072352;28;20082;-75
2020/12/26 10:06:44;;;;;;;9.07;5.87;;;7.20;99.90;;;7.41;79.38;101950.72;5072208;28;20098;-75
2020/12/26 10:09:11;;;;;;;15.10;6.47;;;7.30;99.90;;;7.50;79.17;101952.69;5071031;28;20060;-73
2020/12/26 10:11:39;;;;;;;11.80;6.23;;;7.30;99.90;;;7.39;79.33;101944.53;5070888;28;20072;-71
2020/12/26 10:14:06;;;;;;;11.30;6.33;;;7.30;99.90;;;7.27;79.44;101942.47;5072165;28;20634;-70
2020/12/26 10:16:35;;;;;;;12.87;7.00;;;7.20;99.90;;;7.28;79.32;101935.44;5072370;28;20375;-71
2020/12/26 10:19:05;;;;;;;10.97;6.50;;;7.20;99.90;;;7.23;79.32;101921.28;5072240;28;20471;-72
2020/12/26 10:21:32;;;;;;;;;;;7.10;99.90;;;7.31;79.87;101938.19;5072803;28;20044;-73
2020/12/26 10:24:00;;;;;;;12.70;6.93;;;7.10;99.90;;;7.39;79.43;101927.84;5071823;28;19920;-72
2020/12/26 10:26:27;;;;;;;12.30;5.93;;;7.20;99.90;;;7.35;79.98;101931.25;5072046;28;20036;-71
2020/12/26 10:28:55;;;;;;;13.30;6.60;;;7.20;99.90;;;7.26;79.56;101937.16;5072297;28;20083;-74
2020/12/26 10:31:28;;;;;;;10.80;6.30;;;7.10;99.90;;;7.32;79.64;101922.41;5072230;28;20091;-70
2020/12/26 10:33:56;;;;;;;10.97;6.73;;;7.20;99.90;;;7.18;79.95;101899.25;5072171;28;20036;-71
2020/12/26 10:36:24;;;;;;;11.00;6.63;;;7.20;99.90;;;7.32;80.29;101918.88;5070893;28;20109;-69
2020/12/26 10:38:51;;;;;;;10.37;6.17;;;7.20;99.90;;;7.19;79.74;101874.72;5072295;28;20064;-70